Share

Glencoe, OH (43928)

Crawford Heights (KOHMARTI3) Elev 1109 ft | 40.09 °N, 80.75 °W | Change Station

Current weather conditions updated 4 minutes ago

Clear
Clear
67.6 °F
Feels Like 67.6 °F
N
5.8
Wind Variable Wind from SE
Sunrise 6:38 AM
Sunset 8:07 PM
Moon Waning Gibbous

Today is forecast to be Warmer than yesterday.

Pressure 30.32 in
Visibility 10.0 miles
Clouds Clear
Dew Point 30 °F
Humidity 24%
Rainfall 0.00 in
Snow Depth Not available.
UV 9 out of 16
Pollen 10.70 out of 12
Air Quality Not available.
Flu Activity Local Activity
METAR KHLG 201553Z 15009KT 10SM CLR 17/M04 A3031 RMK AO2 SLP265 T01671039

More Conditions Fewer Conditions

Pressure 30.32 in
Visibility 10.0 miles
Clouds Clear
Dew Point 30 °F
Humidity 24%
Rainfall 0.00 in
Snow Depth Not available.
UV 9 out of 16
Pollen 10.70 out of 12
Air Quality Not available.
Flu Activity Local Activity
METAR KHLG 201553Z 15009KT 10SM CLR 17/M04 A3031 RMK AO2 SLP265 T01671039

More Conditions Fewer Conditions

10-Day Weather Forecast

Almanac

Astronomy

Apr. 20, 2014 Rise Set
Actual Time 6:38 AM EDT 8:07 PM EDT
Civil Twilight 6:09 AM EDT 8:35 PM EDT
Nautical Twilight 5:35 AM EDT 9:09 PM EDT
Astronomical Twilight 4:59 AM EDT 9:46 PM EDT
Moon 12:45 AM EDT 10:57 AM EDT
Length of Visible Light 14h 25m
Length of Day
13h 28m
Tomorrow will be 2m 26s longer.
Waning Gibbous, 69% of the Moon is Illuminated
Today
Waning Gibbous
Apr 22
Last Quarter
Apr 29
New
May 6
First Quarter
May 14
Full

Today's Extremes

State Highs State Lows

Community

  • Columbine
    Columbine
  • Easter Sunrise
    Easter Sunrise
  • Easter Eve - The Promise - Lake Palestine, TX
    Easter Eve - The Promise - Lake Palestine, TX
  • Happy Easter
    Happy Easter
  • EARLY FOGGY MORNING
    EARLY FOGGY MORNING

WunderPhotos

Upload Photos

1,703,262 photos uploaded!

WunderBlogs® & News

Nearby

Snow Depth

Station Depth Elevation
No new snow has been reported.

Coastal Water Temperatures

Place Temperature
No Stations Reporting

Earthquake Activity

City Distance Mag. Time & Date
No recent earthquake activity has been reported nearby.
Minimum magnitude displayed is 2.5.

Nearby Weather Stations

Station Location Temp. Dew Point Humidity Wind Precip. Elev Updated Type
Crawford Heights, Martins Ferry, OH 67.6 °F 30 °F 24% SE  at  5.8 mph - / hr 1109 ft 12:01 PM EDT Normal
Whitmar Hills, Wheeling, WV 64.1 °F 35 °F 34% NW  at  3.0 mph 0.00 in / hr 1060 ft 12:05 PM EDT Normal
West Alexander, West Alexander, PA 67.1 °F 30 °F 25% East  at  8.9 mph - / hr 1191 ft 11:55 AM EDT Normal

Show More Stations Show Fewer Stations

What do you think?

We're not finished. Please let us know what you like, what you don't like, and what you are still missing.